sensor_id;sensor_type;location;lat;lon;timestamp;temperature;humidity
13074;DHT22;6603;47.066;15.396;2024-01-30T00:01:23;-3.30;43.40
13074;DHT22;6603;47.066;15.396;2024-01-30T00:03:52;-3.20;38.50
13074;DHT22;6603;47.066;15.396;2024-01-30T00:06:21;-3.20;38.50
13074;DHT22;6603;47.066;15.396;2024-01-30T00:08:48;-3.30;51.70
13074;DHT22;6603;47.066;15.396;2024-01-30T00:11:15;-3.30;75.70
13074;DHT22;6603;47.066;15.396;2024-01-30T00:13:42;-3.20;49.30
13074;DHT22;6603;47.066;15.396;2024-01-30T00:16:08;-3.30;31.80
13074;DHT22;6603;47.066;15.396;2024-01-30T00:18:35;-3.40;18.60
13074;DHT22;6603;47.066;15.396;2024-01-30T00:21:01;-3.40;35.40
13074;DHT22;6603;47.066;15.396;2024-01-30T00:23:27;-3.40;47.50
13074;DHT22;6603;47.066;15.396;2024-01-30T00:25:53;-3.30;12.80
13074;DHT22;6603;47.066;15.396;2024-01-30T00:28:19;-3.30;1.00
13074;DHT22;6603;47.066;15.396;2024-01-30T00:30:45;-3.40;1.00
13074;DHT22;6603;47.066;15.396;2024-01-30T00:33:11;-3.30;11.50
13074;DHT22;6603;47.066;15.396;2024-01-30T00:35:37;-3.60;1.00
13074;DHT22;6603;47.066;15.396;2024-01-30T00:38:02;-3.70;74.10
13074;DHT22;6603;47.066;15.396;2024-01-30T00:40:28;-3.80;99.90
13074;DHT22;6603;47.066;15.396;2024-01-30T00:42:54;-3.90;99.90
13074;DHT22;6603;47.066;15.396;2024-01-30T00:45:20;-3.50;99.90
13074;DHT22;6603;47.066;15.396;2024-01-30T00:47:46;-3.30;99.90
13074;DHT22;6603;47.066;15.396;2024-01-30T00:50:12;-3.60;63.70
13074;DHT22;6603;47.066;15.396;2024-01-30T00:52:38;-3.50;53.90
13074;DHT22;6603;47.066;15.396;2024-01-30T00:55:05;-3.70;58.50
13074;DHT22;6603;47.066;15.396;2024-01-30T00:57:31;-3.60;36.40
13074;DHT22;6603;47.066;15.396;2024-01-30T00:59:57;-3.60;44.20
13074;DHT22;6603;47.066;15.396;2024-01-30T01:02:23;-3.70;21.10
13074;DHT22;6603;47.066;15.396;2024-01-30T01:04:49;-3.90;99.10
13074;DHT22;6603;47.066;15.396;2024-01-30T01:07:16;-3.60;99.90
13074;DHT22;6603;47.066;15.396;2024-01-30T01:09:42;-3.60;79.30
13074;DHT22;6603;47.066;15.396;2024-01-30T01:12:08;-3.40;94.00
13074;DHT22;6603;47.066;15.396;2024-01-30T01:14:34;-3.50;21.20
13074;DHT22;6603;47.066;15.396;2024-01-30T01:16:59;-3.70;16.80
13074;DHT22;6603;47.066;15.396;2024-01-30T01:19:26;-3.60;58.90
13074;DHT22;6603;47.066;15.396;2024-01-30T01:21:52;-3.40;39.40
13074;DHT22;6603;47.066;15.396;2024-01-30T01:24:18;-3.50;14.80
13074;DHT22;6603;47.066;15.396;2024-01-30T01:26:44;-3.30;63.40
13074;DHT22;6603;47.066;15.396;2024-01-30T01:29:10;-3.40;1.00
13074;DHT22;6603;47.066;15.396;2024-01-30T01:31:38;-3.40;1.00
13074;DHT22;6603;47.066;15.396;2024-01-30T01:34:10;-3.80;1.00
13074;DHT22;6603;47.066;15.396;2024-01-30T01:36:36;-3.80;16.10
13074;DHT22;6603;47.066;15.396;2024-01-30T01:39:02;-3.90;72.60
13074;DHT22;6603;47.066;15.396;2024-01-30T01:41:32;-3.90;99.90
13074;DHT22;6603;47.066;15.396;2024-01-30T01:43:59;-3.60;86.40
13074;DHT22;6603;47.066;15.396;2024-01-30T01:46:30;-3.70;17.40
13074;DHT22;6603;47.066;15.396;2024-01-30T01:48:58;-3.70;31.00
13074;DHT22;6603;47.066;15.396;2024-01-30T01:51:26;-3.80;27.00
13074;DHT22;6603;47.066;15.396;2024-01-30T01:56:23;-3.90;99.90
13074;DHT22;6603;47.066;15.396;2024-01-30T01:58:51;-3.80;76.70
13074;DHT22;6603;47.066;15.396;2024-01-30T02:01:21;-3.70;64.20
13074;DHT22;6603;47.066;15.396;2024-01-30T02:03:47;-3.70;52.50
13074;DHT22;6603;47.066;15.396;2024-01-30T02:06:16;-3.90;11.60
13074;DHT22;6603;47.066;15.396;2024-01-30T02:08:43;-4.20;31.20
13074;DHT22;6603;47.066;15.396;2024-01-30T02:11:09;-3.80;89.70
13074;DHT22;6603;47.066;15.396;2024-01-30T02:13:37;-4.00;36.00
13074;DHT22;6603;47.066;15.396;2024-01-30T02:16:03;-3.90;60.10
13074;DHT22;6603;47.066;15.396;2024-01-30T02:18:29;-4.00;42.20
13074;DHT22;6603;47.066;15.396;2024-01-30T02:20:57;-3.80;68.20
13074;DHT22;6603;47.066;15.396;2024-01-30T02:23:27;-3.60;76.50
13074;DHT22;6603;47.066;15.396;2024-01-30T02:25:53;-3.80;40.60
13074;DHT22;6603;47.066;15.396;2024-01-30T02:28:20;-3.80;24.10
13074;DHT22;6603;47.066;15.396;2024-01-30T02:30:46;-3.90;33.10
13074;DHT22;6603;47.066;15.396;2024-01-30T02:33:13;-3.90;67.30
13074;DHT22;6603;47.066;15.396;2024-01-30T02:35:39;-3.80;29.50
13074;DHT22;6603;47.066;15.396;2024-01-30T02:38:05;-3.90;5.40
13074;DHT22;6603;47.066;15.396;2024-01-30T02:40:32;-4.20;1.00
13074;DHT22;6603;47.066;15.396;2024-01-30T02:42:59;-4.10;95.00
13074;DHT22;6603;47.066;15.396;2024-01-30T02:45:25;-4.00;50.50
13074;DHT22;6603;47.066;15.396;2024-01-30T02:47:52;-4.00;39.40
13074;DHT22;6603;47.066;15.396;2024-01-30T02:50:18;-4.10;14.20
13074;DHT22;6603;47.066;15.396;2024-01-30T02:52:44;-4.00;16.40
13074;DHT22;6603;47.066;15.396;2024-01-30T02:55:10;-4.00;26.80
13074;DHT22;6603;47.066;15.396;2024-01-30T02:57:38;-4.00;9.90
13074;DHT22;6603;47.066;15.396;2024-01-30T03:00:05;-4.10;1.00
13074;DHT22;6603;47.066;15.396;2024-01-30T03:02:35;-4.20;5.80
13074;DHT22;6603;47.066;15.396;2024-01-30T03:05:01;-4.00;10.10
13074;DHT22;6603;47.066;15.396;2024-01-30T03:07:30;-4.00;1.00
13074;DHT22;6603;47.066;15.396;2024-01-30T03:09:56;-4.10;1.00
13074;DHT22;6603;47.066;15.396;2024-01-30T03:12:22;-4.20;1.00
13074;DHT22;6603;47.066;15.396;2024-01-30T03:14:48;-4.20;1.00
13074;DHT22;6603;47.066;15.396;2024-01-30T03:17:16;-4.20;1.00
13074;DHT22;6603;47.066;15.396;2024-01-30T03:19:41;-4.30;10.90
13074;DHT22;6603;47.066;15.396;2024-01-30T03:22:07;-4.20;44.00
13074;DHT22;6603;47.066;15.396;2024-01-30T03:24:33;-4.00;58.10
13074;DHT22;6603;47.066;15.396;2024-01-30T03:26:59;-4.10;1.00
13074;DHT22;6603;47.066;15.396;2024-01-30T03:29:25;-4.10;11.50
13074;DHT22;6603;47.066;15.396;2024-01-30T03:31:51;-4.10;1.00
13074;DHT22;6603;47.066;15.396;2024-01-30T03:34:17;-4.20;11.10
13074;DHT22;6603;47.066;15.396;2024-01-30T03:36:43;-4.20;6.20
13074;DHT22;6603;47.066;15.396;2024-01-30T03:39:09;-4.00;32.70
13074;DHT22;6603;47.066;15.396;2024-01-30T03:41:35;-3.90;15.00
13074;DHT22;6603;47.066;15.396;2024-01-30T03:44:01;-4.00;1.00
13074;DHT22;6603;47.066;15.396;2024-01-30T03:46:27;-4.00;3.80
13074;DHT22;6603;47.066;15.396;2024-01-30T03:48:53;-4.10;1.00
13074;DHT22;6603;47.066;15.396;2024-01-30T03:51:19;-4.30;11.30
13074;DHT22;6603;47.066;15.396;2024-01-30T03:53:45;-4.30;4.40
13074;DHT22;6603;47.066;15.396;2024-01-30T03:56:14;-4.40;1.00
13074;DHT22;6603;47.066;15.396;2024-01-30T03:58:40;-4.40;1.00
13074;DHT22;6603;47.066;15.396;2024-01-30T04:01:07;-4.40;1.00
13074;DHT22;6603;47.066;15.396;2024-01-30T04:03:33;-4.60;1.00
13074;DHT22;6603;47.066;15.396;2024-01-30T04:05:59;-4.70;17.50
13074;DHT22;6603;47.066;15.396;2024-01-30T04:08:25;-4.60;65.70
13074;DHT22;6603;47.066;15.396;2024-01-30T04:10:51;-4.50;13.40
13074;DHT22;6603;47.066;15.396;2024-01-30T04:13:17;-4.50;11.50
13074;DHT22;6603;47.066;15.396;2024-01-30T04:15:43;-4.60;35.30
13074;DHT22;6603;47.066;15.396;2024-01-30T04:18:09;-4.40;44.80
13074;DHT22;6603;47.066;15.396;2024-01-30T04:20:35;-4.30;34.70
13074;DHT22;6603;47.066;15.396;2024-01-30T04:23:01;-4.30;1.00
13074;DHT22;6603;47.066;15.396;2024-01-30T04:25:27;-4.30;9.50
13074;DHT22;6603;47.066;15.396;2024-01-30T04:27:53;-4.40;1.00
13074;DHT22;6603;47.066;15.396;2024-01-30T04:30:19;-4.30;19.60
13074;DHT22;6603;47.066;15.396;2024-01-30T04:32:44;-4.40;57.90
13074;DHT22;6603;47.066;15.396;2024-01-30T04:35:10;-4.50;53.20
13074;DHT22;6603;47.066;15.396;2024-01-30T04:37:36;-4.40;45.30
13074;DHT22;6603;47.066;15.396;2024-01-30T04:40:02;-4.40;13.30
13074;DHT22;6603;47.066;15.396;2024-01-30T04:42:28;-4.50;9.30
13074;DHT22;6603;47.066;15.396;2024-01-30T04:44:54;-4.50;10.30
13074;DHT22;6603;47.066;15.396;2024-01-30T04:47:20;-4.50;1.00
13074;DHT22;6603;47.066;15.396;2024-01-30T04:49:46;-4.50;28.40
13074;DHT22;6603;47.066;15.396;2024-01-30T04:52:12;-4.50;17.30
13074;DHT22;6603;47.066;15.396;2024-01-30T04:54:38;-4.70;68.70
13074;DHT22;6603;47.066;15.396;2024-01-30T04:57:04;-4.40;99.90
13074;DHT22;6603;47.066;15.396;2024-01-30T04:59:35;-4.50;21.20
13074;DHT22;6603;47.066;15.396;2024-01-30T05:02:02;-4.60;27.60
13074;DHT22;6603;47.066;15.396;2024-01-30T05:04:28;-4.70;16.00
13074;DHT22;6603;47.066;15.396;2024-01-30T05:06:54;-5.00;1.00
13074;DHT22;6603;47.066;15.396;2024-01-30T05:09:20;-4.80;39.90
13074;DHT22;6603;47.066;15.396;2024-01-30T05:11:46;-4.60;39.70
13074;DHT22;6603;47.066;15.396;2024-01-30T05:14:11;-4.60;19.80
13074;DHT22;6603;47.066;15.396;2024-01-30T05:16:37;-4.70;1.00
13074;DHT22;6603;47.066;15.396;2024-01-30T05:19:03;-4.60;22.20
13074;DHT22;6603;47.066;15.396;2024-01-30T05:21:29;-4.90;1.00
13074;DHT22;6603;47.066;15.396;2024-01-30T05:23:55;-4.80;1.00
13074;DHT22;6603;47.066;15.396;2024-01-30T05:26:21;-5.10;9.00
13074;DHT22;6603;47.066;15.396;2024-01-30T05:28:48;-4.80;90.10
13074;DHT22;6603;47.066;15.396;2024-01-30T05:31:15;-4.80;81.70
13074;DHT22;6603;47.066;15.396;2024-01-30T05:33:41;-4.80;49.90
13074;DHT22;6603;47.066;15.396;2024-01-30T05:36:07;-4.70;62.00
13074;DHT22;6603;47.066;15.396;2024-01-30T05:38:33;-4.70;10.30
13074;DHT22;6603;47.066;15.396;2024-01-30T05:40:59;-4.70;5.20
13074;DHT22;6603;47.066;15.396;2024-01-30T05:43:25;-4.80;1.00
13074;DHT22;6603;47.066;15.396;2024-01-30T05:45:51;-4.90;10.90
13074;DHT22;6603;47.066;15.396;2024-01-30T05:48:19;-4.90;1.00
13074;DHT22;6603;47.066;15.396;2024-01-30T05:50:45;-4.70;29.50
13074;DHT22;6603;47.066;15.396;2024-01-30T05:53:11;-4.70;2.40
13074;DHT22;6603;47.066;15.396;2024-01-30T05:55:37;-4.70;4.30
13074;DHT22;6603;47.066;15.396;2024-01-30T05:58:03;-4.70;1.00
13074;DHT22;6603;47.066;15.396;2024-01-30T06:00:29;-4.80;1.00
13074;DHT22;6603;47.066;15.396;2024-01-30T06:02:55;-4.90;1.00
13074;DHT22;6603;47.066;15.396;2024-01-30T06:05:21;-4.80;1.00
13074;DHT22;6603;47.066;15.396;2024-01-30T06:07:47;-5.00;21.60
13074;DHT22;6603;47.066;15.396;2024-01-30T06:10:13;-5.20;90.70
13074;DHT22;6603;47.066;15.396;2024-01-30T06:12:40;-5.10;99.90
13074;DHT22;6603;47.066;15.396;2024-01-30T06:15:06;-4.70;99.90
13074;DHT22;6603;47.066;15.396;2024-01-30T06:17:32;-4.50;61.60
13074;DHT22;6603;47.066;15.396;2024-01-30T06:19:58;-4.70;1.90
13074;DHT22;6603;47.066;15.396;2024-01-30T06:22:24;-4.80;1.40
13074;DHT22;6603;47.066;15.396;2024-01-30T06:24:50;-5.00;1.00
13074;DHT22;6603;47.066;15.396;2024-01-30T06:27:16;-5.00;20.90
13074;DHT22;6603;47.066;15.396;2024-01-30T06:29:43;-5.00;2.90
13074;DHT22;6603;47.066;15.396;2024-01-30T06:32:09;-5.30;14.30
13074;DHT22;6603;47.066;15.396;2024-01-30T06:34:35;-4.90;70.00
13074;DHT22;6603;47.066;15.396;2024-01-30T06:37:02;-4.80;59.60
13074;DHT22;6603;47.066;15.396;2024-01-30T06:39:28;-4.80;43.20
13074;DHT22;6603;47.066;15.396;2024-01-30T06:41:53;-4.70;20.30
13074;DHT22;6603;47.066;15.396;2024-01-30T06:44:19;-4.90;13.20
13074;DHT22;6603;47.066;15.396;2024-01-30T06:46:45;-4.90;10.80
13074;DHT22;6603;47.066;15.396;2024-01-30T06:49:11;-4.70;31.80
13074;DHT22;6603;47.066;15.396;2024-01-30T06:51:36;-4.60;1.00
13074;DHT22;6603;47.066;15.396;2024-01-30T06:54:02;-4.70;1.00
13074;DHT22;6603;47.066;15.396;2024-01-30T06:56:28;-4.70;68.40
13074;DHT22;6603;47.066;15.396;2024-01-30T06:58:54;-4.60;95.30
13074;DHT22;6603;47.066;15.396;2024-01-30T07:01:20;-4.40;41.60
13074;DHT22;6603;47.066;15.396;2024-01-30T07:03:46;-4.60;1.00
13074;DHT22;6603;47.066;15.396;2024-01-30T07:06:12;-4.50;30.70
13074;DHT22;6603;47.066;15.396;2024-01-30T07:08:38;-4.40;16.60
13074;DHT22;6603;47.066;15.396;2024-01-30T07:11:05;-4.50;1.00
13074;DHT22;6603;47.066;15.396;2024-01-30T07:13:32;-4.40;13.70
13074;DHT22;6603;47.066;15.396;2024-01-30T07:15:58;-4.30;16.20
13074;DHT22;6603;47.066;15.396;2024-01-30T07:18:24;-4.10;21.80
13074;DHT22;6603;47.066;15.396;2024-01-30T07:20:50;-4.10;2.50
13074;DHT22;6603;47.066;15.396;2024-01-30T07:23:16;-4.20;1.00
13074;DHT22;6603;47.066;15.396;2024-01-30T07:25:44;-4.00;92.60
13074;DHT22;6603;47.066;15.396;2024-01-30T07:28:10;-3.90;58.50
13074;DHT22;6603;47.066;15.396;2024-01-30T07:30:37;-3.80;35.20
13074;DHT22;6603;47.066;15.396;2024-01-30T07:33:04;-3.70;24.40
13074;DHT22;6603;47.066;15.396;2024-01-30T07:35:30;-3.70;29.90
13074;DHT22;6603;47.066;15.396;2024-01-30T07:37:56;-3.50;23.10
13074;DHT22;6603;47.066;15.396;2024-01-30T07:40:23;-3.60;30.70
13074;DHT22;6603;47.066;15.396;2024-01-30T07:42:49;-3.40;53.70
13074;DHT22;6603;47.066;15.396;2024-01-30T07:45:15;-3.20;12.20
13074;DHT22;6603;47.066;15.396;2024-01-30T07:47:43;-3.10;1.00
13074;DHT22;6603;47.066;15.396;2024-01-30T07:50:09;-3.20;16.70
13074;DHT22;6603;47.066;15.396;2024-01-30T07:52:37;-3.00;5.30
13074;DHT22;6603;47.066;15.396;2024-01-30T07:55:05;-2.90;1.00
13074;DHT22;6603;47.066;15.396;2024-01-30T07:57:33;-2.80;1.00
13074;DHT22;6603;47.066;15.396;2024-01-30T08:00:03;-2.70;1.00
13074;DHT22;6603;47.066;15.396;2024-01-30T08:02:31;-2.60;4.30
13074;DHT22;6603;47.066;15.396;2024-01-30T08:04:57;-2.50;27.80
13074;DHT22;6603;47.066;15.396;2024-01-30T08:07:23;-2.30;5.40
13074;DHT22;6603;47.066;15.396;2024-01-30T08:09:49;-2.20;1.80
13074;DHT22;6603;47.066;15.396;2024-01-30T08:12:15;-2.00;1.00
13074;DHT22;6603;47.066;15.396;2024-01-30T08:14:41;-1.90;1.00
13074;DHT22;6603;47.066;15.396;2024-01-30T08:17:07;-1.80;1.00
13074;DHT22;6603;47.066;15.396;2024-01-30T08:19:34;-1.70;1.00
13074;DHT22;6603;47.066;15.396;2024-01-30T08:22:00;-1.60;1.00
13074;DHT22;6603;47.066;15.396;2024-01-30T08:24:26;-1.50;1.00
13074;DHT22;6603;47.066;15.396;2024-01-30T08:26:52;-1.40;1.00
13074;DHT22;6603;47.066;15.396;2024-01-30T08:29:18;-1.30;1.00
13074;DHT22;6603;47.066;15.396;2024-01-30T08:31:44;-1.20;1.00
13074;DHT22;6603;47.066;15.396;2024-01-30T08:34:11;-1.10;1.00
13074;DHT22;6603;47.066;15.396;2024-01-30T08:36:37;-1.10;1.00
13074;DHT22;6603;47.066;15.396;2024-01-30T08:39:03;-1.00;1.00
13074;DHT22;6603;47.066;15.396;2024-01-30T08:41:31;-0.90;1.00
13074;DHT22;6603;47.066;15.396;2024-01-30T08:43:57;-0.80;1.00
13074;DHT22;6603;47.066;15.396;2024-01-30T08:46:22;-0.80;1.00
13074;DHT22;6603;47.066;15.396;2024-01-30T08:48:48;-0.60;1.00
13074;DHT22;6603;47.066;15.396;2024-01-30T08:51:14;-0.60;1.00
13074;DHT22;6603;47.066;15.396;2024-01-30T08:53:41;-0.60;1.00
13074;DHT22;6603;47.066;15.396;2024-01-30T08:56:07;-0.60;1.00
13074;DHT22;6603;47.066;15.396;2024-01-30T08:58:33;-0.60;1.00
13074;DHT22;6603;47.066;15.396;2024-01-30T09:00:59;-0.60;1.00
13074;DHT22;6603;47.066;15.396;2024-01-30T09:03:25;-0.50;1.00
13074;DHT22;6603;47.066;15.396;2024-01-30T09:05:51;-0.40;1.00
13074;DHT22;6603;47.066;15.396;2024-01-30T09:08:17;-0.30;1.00
13074;DHT22;6603;47.066;15.396;2024-01-30T09:10:42;-0.20;1.00
13074;DHT22;6603;47.066;15.396;2024-01-30T09:13:10;-0.20;1.00
13074;DHT22;6603;47.066;15.396;2024-01-30T09:15:36;-0.10;1.00
13074;DHT22;6603;47.066;15.396;2024-01-30T09:18:02;0.00;1.00
13074;DHT22;6603;47.066;15.396;2024-01-30T09:20:28;0.00;1.00
13074;DHT22;6603;47.066;15.396;2024-01-30T09:22:54;0.10;1.00
13074;DHT22;6603;47.066;15.396;2024-01-30T09:25:20;0.30;1.00
13074;DHT22;6603;47.066;15.396;2024-01-30T09:27:46;0.30;1.00
13074;DHT22;6603;47.066;15.396;2024-01-30T09:30:12;0.40;1.00
13074;DHT22;6603;47.066;15.396;2024-01-30T09:32:40;0.50;1.00
13074;DHT22;6603;47.066;15.396;2024-01-30T09:35:06;0.60;1.00
13074;DHT22;6603;47.066;15.396;2024-01-30T09:37:33;0.70;1.00
13074;DHT22;6603;47.066;15.396;2024-01-30T09:39:59;0.70;1.00
13074;DHT22;6603;47.066;15.396;2024-01-30T09:42:35;0.90;1.00
13074;DHT22;6603;47.066;15.396;2024-01-30T09:45:02;1.00;1.00
13074;DHT22;6603;47.066;15.396;2024-01-30T09:47:40;1.10;1.00
13074;DHT22;6603;47.066;15.396;2024-01-30T09:50:09;1.20;1.00
13074;DHT22;6603;47.066;15.396;2024-01-30T09:52:36;1.30;1.00
13074;DHT22;6603;47.066;15.396;2024-01-30T09:55:03;1.40;1.00
13074;DHT22;6603;47.066;15.396;2024-01-30T09:57:30;1.50;99.90
13074;DHT22;6603;47.066;15.396;2024-01-30T09:59:56;1.60;1.00
13074;DHT22;6603;47.066;15.396;2024-01-30T10:02:22;1.70;1.00
13074;DHT22;6603;47.066;15.396;2024-01-30T10:04:49;1.80;1.00
13074;DHT22;6603;47.066;15.396;2024-01-30T10:07:15;1.90;1.00
13074;DHT22;6603;47.066;15.396;2024-01-30T10:09:41;2.00;1.00
13074;DHT22;6603;47.066;15.396;2024-01-30T10:12:09;2.10;99.90
13074;DHT22;6603;47.066;15.396;2024-01-30T10:14:41;2.30;1.00
13074;DHT22;6603;47.066;15.396;2024-01-30T10:17:09;2.40;1.00
13074;DHT22;6603;47.066;15.396;2024-01-30T10:19:40;2.40;17.10
13074;DHT22;6603;47.066;15.396;2024-01-30T10:22:06;2.60;99.90
13074;DHT22;6603;47.066;15.396;2024-01-30T10:24:36;2.60;99.90
13074;DHT22;6603;47.066;15.396;2024-01-30T10:27:02;2.70;16.30
13074;DHT22;6603;47.066;15.396;2024-01-30T10:29:29;2.70;1.00
13074;DHT22;6603;47.066;15.396;2024-01-30T10:34:25;2.90;1.00
13074;DHT22;6603;47.066;15.396;2024-01-30T10:37:08;3.10;1.00
13074;DHT22;6603;47.066;15.396;2024-01-30T10:39:45;3.10;1.00
13074;DHT22;6603;47.066;15.396;2024-01-30T10:42:13;3.20;1.00
13074;DHT22;6603;47.066;15.396;2024-01-30T10:47:28;3.40;1.00
13074;DHT22;6603;47.066;15.396;2024-01-30T10:49:55;3.50;1.00
13074;DHT22;6603;47.066;15.396;2024-01-30T10:52:23;3.50;1.00
13074;DHT22;6603;47.066;15.396;2024-01-30T10:54:55;3.60;1.00
13074;DHT22;6603;47.066;15.396;2024-01-30T10:57:23;3.60;99.90
13074;DHT22;6603;47.066;15.396;2024-01-30T10:59:52;3.70;99.90
13074;DHT22;6603;47.066;15.396;2024-01-30T11:02:19;3.80;1.00
13074;DHT22;6603;47.066;15.396;2024-01-30T11:04:45;3.90;99.90
13074;DHT22;6603;47.066;15.396;2024-01-30T11:07:24;4.00;1.00
13074;DHT22;6603;47.066;15.396;2024-01-30T11:12:41;4.20;1.00
13074;DHT22;6603;47.066;15.396;2024-01-30T11:15:11;4.40;1.00
13074;DHT22;6603;47.066;15.396;2024-01-30T11:17:50;4.40;99.90
13074;DHT22;6603;47.066;15.396;2024-01-30T11:20:22;4.50;1.00
13074;DHT22;6603;47.066;15.396;2024-01-30T11:22:51;4.60;99.90
13074;DHT22;6603;47.066;15.396;2024-01-30T11:25:20;4.70;1.00
13074;DHT22;6603;47.066;15.396;2024-01-30T11:27:49;4.70;99.90
13074;DHT22;6603;47.066;15.396;2024-01-30T11:30:29;4.70;99.90
13074;DHT22;6603;47.066;15.396;2024-01-30T11:35:37;4.80;99.90
13074;DHT22;6603;47.066;15.396;2024-01-30T11:38:06;5.00;99.90
13074;DHT22;6603;47.066;15.396;2024-01-30T11:40:33;5.10;17.80
13074;DHT22;6603;47.066;15.396;2024-01-30T11:43:01;5.20;23.00
13074;DHT22;6603;47.066;15.396;2024-01-30T11:45:29;5.30;1.00
13074;DHT22;6603;47.066;15.396;2024-01-30T11:47:55;5.30;1.00
13074;DHT22;6603;47.066;15.396;2024-01-30T11:50:21;5.40;16.30
13074;DHT22;6603;47.066;15.396;2024-01-30T11:52:48;5.50;1.00
13074;DHT22;6603;47.066;15.396;2024-01-30T11:55:15;5.60;1.00
13074;DHT22;6603;47.066;15.396;2024-01-30T11:57:41;5.50;1.00
13074;DHT22;6603;47.066;15.396;2024-01-30T12:00:17;5.60;1.00
13074;DHT22;6603;47.066;15.396;2024-01-30T12:02:48;5.70;1.00
13074;DHT22;6603;47.066;15.396;2024-01-30T12:05:15;5.80;1.00
13074;DHT22;6603;47.066;15.396;2024-01-30T12:07:44;5.90;1.00
13074;DHT22;6603;47.066;15.396;2024-01-30T12:10:13;5.90;1.00
13074;DHT22;6603;47.066;15.396;2024-01-30T12:12:41;5.90;1.00
13074;DHT22;6603;47.066;15.396;2024-01-30T12:15:08;6.00;1.00
13074;DHT22;6603;47.066;15.396;2024-01-30T12:17:35;6.10;1.00
13074;DHT22;6603;47.066;15.396;2024-01-30T12:20:41;6.10;1.00
13074;DHT22;6603;47.066;15.396;2024-01-30T12:23:00;6.10;1.00
13074;DHT22;6603;47.066;15.396;2024-01-30T12:25:26;6.10;1.00
13074;DHT22;6603;47.066;15.396;2024-01-30T12:27:52;6.10;1.00
13074;DHT22;6603;47.066;15.396;2024-01-30T12:30:19;6.20;1.00
13074;DHT22;6603;47.066;15.396;2024-01-30T12:32:48;6.20;1.00
13074;DHT22;6603;47.066;15.396;2024-01-30T12:35:19;6.30;1.00
13074;DHT22;6603;47.066;15.396;2024-01-30T12:37:47;6.40;99.90
13074;DHT22;6603;47.066;15.396;2024-01-30T12:40:17;6.20;99.90
13074;DHT22;6603;47.066;15.396;2024-01-30T12:42:45;6.20;1.00
13074;DHT22;6603;47.066;15.396;2024-01-30T12:45:14;6.20;1.00
13074;DHT22;6603;47.066;15.396;2024-01-30T12:47:41;6.20;99.90
13074;DHT22;6603;47.066;15.396;2024-01-30T12:50:07;6.10;99.90
13074;DHT22;6603;47.066;15.396;2024-01-30T12:52:35;6.00;99.90
13074;DHT22;6603;47.066;15.396;2024-01-30T12:55:01;6.10;1.00
13074;DHT22;6603;47.066;15.396;2024-01-30T12:57:29;6.10;99.90
13074;DHT22;6603;47.066;15.396;2024-01-30T12:59:55;6.20;99.90
13074;DHT22;6603;47.066;15.396;2024-01-30T13:02:22;6.30;99.90
13074;DHT22;6603;47.066;15.396;2024-01-30T13:04:48;6.40;99.90
13074;DHT22;6603;47.066;15.396;2024-01-30T13:07:14;6.50;99.90
13074;DHT22;6603;47.066;15.396;2024-01-30T13:09:40;6.40;99.90
13074;DHT22;6603;47.066;15.396;2024-01-30T13:12:06;6.40;99.90
13074;DHT22;6603;47.066;15.396;2024-01-30T13:14:32;6.40;99.90
13074;DHT22;6603;47.066;15.396;2024-01-30T13:16:58;6.40;99.90
13074;DHT22;6603;47.066;15.396;2024-01-30T13:19:24;6.20;99.90
13074;DHT22;6603;47.066;15.396;2024-01-30T13:21:50;6.20;99.90
13074;DHT22;6603;47.066;15.396;2024-01-30T13:24:16;6.30;99.90
13074;DHT22;6603;47.066;15.396;2024-01-30T13:26:45;6.40;99.90
13074;DHT22;6603;47.066;15.396;2024-01-30T13:29:11;6.50;99.90
13074;DHT22;6603;47.066;15.396;2024-01-30T13:31:37;6.50;99.90
13074;DHT22;6603;47.066;15.396;2024-01-30T13:34:05;6.40;99.90
13074;DHT22;6603;47.066;15.396;2024-01-30T13:36:32;6.40;99.90
13074;DHT22;6603;47.066;15.396;2024-01-30T13:38:58;6.50;99.90
13074;DHT22;6603;47.066;15.396;2024-01-30T13:41:24;6.60;99.90
13074;DHT22;6603;47.066;15.396;2024-01-30T13:43:50;6.60;99.90
13074;DHT22;6603;47.066;15.396;2024-01-30T13:46:16;6.50;99.90
13074;DHT22;6603;47.066;15.396;2024-01-30T13:48:42;6.50;99.90
13074;DHT22;6603;47.066;15.396;2024-01-30T13:51:08;6.60;99.90
13074;DHT22;6603;47.066;15.396;2024-01-30T13:53:34;6.50;99.90
13074;DHT22;6603;47.066;15.396;2024-01-30T13:56:00;6.50;99.90
13074;DHT22;6603;47.066;15.396;2024-01-30T13:58:26;6.50;99.90
13074;DHT22;6603;47.066;15.396;2024-01-30T14:00:53;6.50;99.90
13074;DHT22;6603;47.066;15.396;2024-01-30T14:03:19;6.50;99.90
13074;DHT22;6603;47.066;15.396;2024-01-30T14:05:45;6.30;99.90
13074;DHT22;6603;47.066;15.396;2024-01-30T14:08:11;6.30;99.90
13074;DHT22;6603;47.066;15.396;2024-01-30T14:10:37;6.20;99.90
13074;DHT22;6603;47.066;15.396;2024-01-30T14:13:03;6.10;99.90
13074;DHT22;6603;47.066;15.396;2024-01-30T14:15:29;6.20;99.90
13074;DHT22;6603;47.066;15.396;2024-01-30T14:17:55;6.20;99.90
13074;DHT22;6603;47.066;15.396;2024-01-30T14:20:21;6.10;99.90
13074;DHT22;6603;47.066;15.396;2024-01-30T14:22:47;5.90;99.90
13074;DHT22;6603;47.066;15.396;2024-01-30T14:25:13;5.90;99.90
13074;DHT22;6603;47.066;15.396;2024-01-30T14:27:39;5.80;99.90
13074;DHT22;6603;47.066;15.396;2024-01-30T14:30:06;5.70;1.00
13074;DHT22;6603;47.066;15.396;2024-01-30T14:32:33;5.60;1.00
13074;DHT22;6603;47.066;15.396;2024-01-30T14:35:00;5.60;1.00
13074;DHT22;6603;47.066;15.396;2024-01-30T14:37:26;5.50;1.00
13074;DHT22;6603;47.066;15.396;2024-01-30T14:39:55;5.40;1.00
13074;DHT22;6603;47.066;15.396;2024-01-30T14:42:20;5.30;1.00
13074;DHT22;6603;47.066;15.396;2024-01-30T14:44:46;5.20;1.00
13074;DHT22;6603;47.066;15.396;2024-01-30T14:47:12;5.10;1.00
13074;DHT22;6603;47.066;15.396;2024-01-30T14:49:39;5.10;1.00
13074;DHT22;6603;47.066;15.396;2024-01-30T14:52:04;5.00;1.00
13074;DHT22;6603;47.066;15.396;2024-01-30T14:54:30;5.00;1.00
13074;DHT22;6603;47.066;15.396;2024-01-30T14:56:57;5.00;1.00
13074;DHT22;6603;47.066;15.396;2024-01-30T14:59:25;5.00;1.00
13074;DHT22;6603;47.066;15.396;2024-01-30T15:01:51;4.80;1.00
13074;DHT22;6603;47.066;15.396;2024-01-30T15:04:17;4.70;1.00
13074;DHT22;6603;47.066;15.396;2024-01-30T15:06:43;4.60;1.00
13074;DHT22;6603;47.066;15.396;2024-01-30T15:09:14;4.50;2.90
13074;DHT22;6603;47.066;15.396;2024-01-30T15:11:41;4.40;56.30
13074;DHT22;6603;47.066;15.396;2024-01-30T15:14:08;4.30;99.90
13074;DHT22;6603;47.066;15.396;2024-01-30T15:16:34;4.10;99.90
13074;DHT22;6603;47.066;15.396;2024-01-30T15:19:00;4.00;1.00
13074;DHT22;6603;47.066;15.396;2024-01-30T15:21:26;4.00;1.00
13074;DHT22;6603;47.066;15.396;2024-01-30T15:23:52;3.90;1.00
13074;DHT22;6603;47.066;15.396;2024-01-30T15:26:18;3.80;1.00
13074;DHT22;6603;47.066;15.396;2024-01-30T15:28:44;3.70;1.00
13074;DHT22;6603;47.066;15.396;2024-01-30T15:31:09;3.60;1.00
13074;DHT22;6603;47.066;15.396;2024-01-30T15:33:36;3.60;1.00
13074;DHT22;6603;47.066;15.396;2024-01-30T15:36:03;3.50;1.00
13074;DHT22;6603;47.066;15.396;2024-01-30T15:38:29;3.30;99.90
13074;DHT22;6603;47.066;15.396;2024-01-30T15:40:55;3.10;99.90
13074;DHT22;6603;47.066;15.396;2024-01-30T15:43:22;2.80;1.00
13074;DHT22;6603;47.066;15.396;2024-01-30T15:45:50;2.60;99.90
13074;DHT22;6603;47.066;15.396;2024-01-30T15:48:20;2.40;99.90
13074;DHT22;6603;47.066;15.396;2024-01-30T15:50:46;2.30;1.00
13074;DHT22;6603;47.066;15.396;2024-01-30T15:53:12;2.30;1.00
13074;DHT22;6603;47.066;15.396;2024-01-30T15:55:38;2.20;1.00